Time;durP1;ratioP1;P1;durP2;ratioP2;P2;SDS_P1;SDS_P2;PMS_P1;PMS_P2;Temp;Humidity;BMP_temperature;BMP_pressure;BME280_temperature;BME280_humidity;BME280_pressure;Samples;Min_cycle;Max_cycle;Signal;HPM_P1;HPM_P2
2022/11/22 00:01:46;;;;;;;;;;;9.40;99.90;;;;;;7338178;19;109360;-78
2022/11/22 00:04:13;;;;;;;;;;;9.40;99.90;;;;;;7340773;19;109324;-78
2022/11/22 00:06:40;;;;;;;;;;;9.40;99.90;;;;;;7337582;19;109182;-78
2022/11/22 00:09:07;;;;;;;;;;;9.40;99.90;;;;;;7337467;19;109591;-78
2022/11/22 00:11:34;;;;;;;;;;;9.30;99.90;;;;;;7335439;19;110401;-78
2022/11/22 00:14:01;;;;;;;;;;;9.30;99.90;;;;;;7337558;19;109087;-78
2022/11/22 00:16:33;;;;;;;;;;;9.30;99.90;;;;;;7333276;19;109535;-78
2022/11/22 00:19:00;;;;;;;;;;;9.30;99.90;;;;;;7336112;19;112669;-78
2022/11/22 00:21:27;;;;;;;;;;;9.30;99.90;;;;;;7334829;19;108915;-78
2022/11/22 00:23:57;;;;;;;;;;;9.30;99.90;;;;;;7339227;19;109103;-78
2022/11/22 00:26:24;;;;;;;;;;;9.20;99.90;;;;;;7334870;19;108804;-77
2022/11/22 00:28:50;;;;;;;;;;;9.20;99.90;;;;;;7338538;19;110672;-79
2022/11/22 00:31:18;;;;;;;;;;;9.20;99.90;;;;;;7335332;19;109507;-78
2022/11/22 00:33:45;;;;;;;;;;;9.20;99.90;;;;;;7341202;19;109315;-78
2022/11/22 00:36:11;;;;;;;;;;;9.10;99.90;;;;;;7339765;19;110990;-78
2022/11/22 00:38:38;;;;;;;;;;;9.10;99.90;;;;;;7339291;19;110114;-78
2022/11/22 00:41:06;;;;;;;;;;;9.10;99.90;;;;;;7338433;19;108451;-77
2022/11/22 00:43:35;;;;;;;;;;;9.00;99.90;;;;;;7338563;19;109620;-77
2022/11/22 00:46:02;;;;;;;;;;;9.00;99.90;;;;;;7343191;19;110196;-78
2022/11/22 00:48:29;;;;;;;;;;;9.00;99.90;;;;;;7338649;19;109578;-77
2022/11/22 00:50:56;;;;;;;;;;;9.00;99.90;;;;;;7338550;19;110307;-77
2022/11/22 00:53:23;;;;;;;;;;;8.90;99.90;;;;;;7335454;19;108914;-77
2022/11/22 00:55:50;;;;;;;;;;;8.90;99.90;;;;;;7335220;19;109516;-79
2022/11/22 00:58:17;;;;;;;;;;;8.90;99.90;;;;;;7334346;19;112802;-77
2022/11/22 01:00:44;;;;;;;;;;;8.80;99.90;;;;;;7333021;19;109028;-77
2022/11/22 01:03:12;;;;;;;;;;;8.80;99.90;;;;;;7331384;19;110446;-78
2022/11/22 01:05:39;;;;;;;;;;;8.80;99.90;;;;;;7332935;19;110108;-78
2022/11/22 01:08:06;;;;;;;;;;;8.80;99.90;;;;;;7340656;19;108899;-77
2022/11/22 01:10:35;;;;;;;;;;;8.80;99.90;;;;;;7332562;19;109865;-78
2022/11/22 01:13:03;;;;;;;;;;;8.70;99.90;;;;;;7335471;19;108400;-78
2022/11/22 01:15:31;;;;;;;;;;;8.70;99.90;;;;;;7331442;19;109654;-78
2022/11/22 01:17:58;;;;;;;;;;;8.70;99.90;;;;;;7329994;19;110754;-78
2022/11/22 01:20:25;;;;;;;;;;;8.60;99.90;;;;;;7334394;19;109999;-79
2022/11/22 01:22:52;;;;;;;;;;;8.60;99.90;;;;;;7334798;19;109431;-78
2022/11/22 01:25:19;;;;;;;;;;;8.60;99.90;;;;;;7332417;19;109891;-80
2022/11/22 01:27:46;;;;;;;;;;;8.60;99.90;;;;;;7333836;19;108949;-80
2022/11/22 01:30:13;;;;;;;;;;;8.60;99.90;;;;;;7338728;19;110706;-80
2022/11/22 01:32:40;;;;;;;;;;;8.50;99.90;;;;;;7334653;19;108825;-80
2022/11/22 01:35:08;;;;;;;;;;;8.50;99.90;;;;;;7332931;19;109650;-78
2022/11/22 01:37:36;;;;;;;;;;;8.50;99.90;;;;;;7332478;19;110378;-78
2022/11/22 01:40:03;;;;;;;;;;;8.50;99.90;;;;;;7332480;19;109251;-78
2022/11/22 01:42:43;;;;;;;;;;;8.40;99.90;;;;;;7332719;19;109873;-78
2022/11/22 01:45:28;;;;;;;;;;;8.40;99.90;;;;;;7333027;19;112369;-78
2022/11/22 01:47:55;;;;;;;;;;;8.40;99.90;;;;;;7333938;19;108335;-78
2022/11/22 01:50:22;;;;;;;;;;;8.40;99.90;;;;;;7333262;19;109760;-77
2022/11/22 01:52:49;;;;;;;;;;;8.40;99.90;;;;;;7337581;19;109211;-78
2022/11/22 01:55:16;;;;;;;;;;;8.30;99.90;;;;;;7332985;19;109136;-78
2022/11/22 01:57:44;;;;;;;;;;;8.30;99.90;;;;;;7331038;19;110323;-78
2022/11/22 02:00:12;;;;;;;;;;;8.30;99.90;;;;;;7332214;19;108384;-77
2022/11/22 02:02:39;;;;;;;;;;;8.30;99.90;;;;;;7333122;19;111263;-78
2022/11/22 02:05:11;;;;;;;;;;;8.30;99.90;;;;;;7332915;19;111528;-77
2022/11/22 02:07:59;;;;;;;;;;;8.30;99.90;;;;;;7333560;19;109221;-78
2022/11/22 02:10:27;;;;;;;;;;;8.20;99.90;;;;;;7329927;19;109187;-77
2022/11/22 02:12:58;;;;;;;;;;;8.20;99.90;;;;;;7331431;19;110271;-78
2022/11/22 02:15:25;;;;;;;;;;;8.20;99.90;;;;;;7337164;19;109090;-78
2022/11/22 02:17:52;;;;;;;;;;;8.20;99.90;;;;;;7338774;19;109836;-78
2022/11/22 02:20:19;;;;;;;;;;;8.10;99.90;;;;;;7337934;19;108971;-77
2022/11/22 02:22:53;;;;;;;;;;;8.10;99.90;;;;;;7333346;19;110081;-77
2022/11/22 02:25:23;;;;;;;;;;;8.10;99.90;;;;;;7336398;19;111339;-77
2022/11/22 02:27:50;;;;;;;;;;;8.10;99.90;;;;;;7335913;19;109324;-77
2022/11/22 02:30:18;;;;;;;;;;;8.10;99.90;;;;;;7337586;19;108919;-77
2022/11/22 02:32:45;;;;;;;;;;;8.00;99.90;;;;;;7339573;19;111006;-77
2022/11/22 02:35:16;;;;;;;;;;;8.00;99.90;;;;;;7342212;19;109650;-77
2022/11/22 02:37:43;;;;;;;;;;;8.00;99.90;;;;;;7338404;19;110165;-77
2022/11/22 02:40:13;;;;;;;;;;;8.00;99.90;;;;;;7336499;19;108797;-77
2022/11/22 02:42:43;;;;;;;;;;;8.00;99.90;;;;;;7339895;19;113382;-77
2022/11/22 02:45:10;;;;;;;;;;;7.90;99.90;;;;;;7333641;19;111500;-77
2022/11/22 02:47:37;;;;;;;;;;;7.90;99.90;;;;;;7339547;19;109326;-77
2022/11/22 02:50:04;;;;;;;;;;;7.80;99.90;;;;;;7339474;19;110376;-77
2022/11/22 02:52:31;;;;;;;;;;;7.80;99.90;;;;;;7336819;19;110998;-77
2022/11/22 02:54:57;;;;;;;;;;;7.80;99.90;;;;;;7337496;19;108305;-77
2022/11/22 02:57:24;;;;;;;;;;;7.80;99.90;;;;;;7343150;19;109146;-77
2022/11/22 02:59:51;;;;;;;;;;;7.80;99.90;;;;;;7338893;19;110377;-77
2022/11/22 03:02:18;;;;;;;;;;;7.80;99.90;;;;;;7337864;19;109218;-77
2022/11/22 03:04:45;;;;;;;;;;;7.80;99.90;;;;;;7337282;19;110382;-77
2022/11/22 03:07:12;;;;;;;;;;;7.70;99.90;;;;;;7336765;19;108701;-77
2022/11/22 03:09:39;;;;;;;;;;;7.70;99.90;;;;;;7339093;19;108991;-77
2022/11/22 03:12:06;;;;;;;;;;;7.70;99.90;;;;;;7337368;19;110907;-77
2022/11/22 03:14:33;;;;;;;;;;;7.70;99.90;;;;;;7334212;19;110930;-76
2022/11/22 03:16:59;;;;;;;;;;;7.70;99.90;;;;;;7337926;19;108900;-76
2022/11/22 03:19:26;;;;;;;;;;;7.60;99.90;;;;;;7343252;19;115015;-77
2022/11/22 03:21:53;;;;;;;;;;;7.60;99.90;;;;;;7335595;19;109486;-77
2022/11/22 03:24:20;;;;;;;;;;;7.60;99.90;;;;;;7336627;19;110066;-77
2022/11/22 03:26:48;;;;;;;;;;;7.60;99.90;;;;;;7338384;19;108870;-77
2022/11/22 03:29:16;;;;;;;;;;;7.50;99.90;;;;;;7337830;19;109106;-77
2022/11/22 03:31:43;;;;;;;;;;;7.50;99.90;;;;;;7336665;19;110239;-76
2022/11/22 03:34:10;;;;;;;;;;;7.50;99.90;;;;;;7337547;19;108961;-77
2022/11/22 03:36:37;;;;;;;;;;;7.50;99.90;;;;;;7340945;19;110179;-77
2022/11/22 03:39:04;;;;;;;;;;;7.50;99.90;;;;;;7335329;19;109207;-77
2022/11/22 03:41:31;;;;;;;;;;;7.40;99.90;;;;;;7342401;19;108917;-77
2022/11/22 03:43:58;;;;;;;;;;;7.40;99.90;;;;;;7336928;19;110315;-76
2022/11/22 03:46:25;;;;;;;;;;;7.40;99.90;;;;;;7334833;19;110019;-77
2022/11/22 03:48:51;;;;;;;;;;;7.40;99.90;;;;;;7336903;19;110394;-77
2022/11/22 03:51:18;;;;;;;;;;;7.30;99.90;;;;;;7334745;19;110417;-77
2022/11/22 03:53:45;;;;;;;;;;;7.30;99.90;;;;;;7336251;19;108918;-77
2022/11/22 03:56:12;;;;;;;;;;;7.30;99.90;;;;;;7337753;19;108893;-77
2022/11/22 03:58:39;;;;;;;;;;;7.30;99.90;;;;;;7334988;19;111945;-76
2022/11/22 04:01:06;;;;;;;;;;;7.30;99.90;;;;;;7338608;19;108763;-77
2022/11/22 04:03:40;;;;;;;;;;;7.20;99.90;;;;;;7343377;19;109619;-77
2022/11/22 04:06:07;;;;;;;;;;;7.20;99.90;;;;;;7335443;19;108510;-77
2022/11/22 04:08:34;;;;;;;;;;;7.20;99.90;;;;;;7333687;19;109488;-78
2022/11/22 04:11:01;;;;;;;;;;;7.20;99.90;;;;;;7336935;19;110210;-77
2022/11/22 04:16:13;;;;;;;;;;;7.20;99.90;;;;;;7336240;19;109161;-78
2022/11/22 04:18:40;;;;;;;;;;;7.10;99.90;;;;;;7337495;19;109876;-77
2022/11/22 04:26:52;;;;;;;;;;;7.10;99.90;;;;;;7338094;19;110472;-77
2022/11/22 04:29:19;;;;;;;;;;;7.10;99.90;;;;;;7331551;19;109923;-78
2022/11/22 04:34:32;;;;;;;;;;;7.00;99.90;;;;;;7331351;19;109191;-77
2022/11/22 04:36:59;;;;;;;;;;;7.00;99.90;;;;;;7331509;19;108621;-77
2022/11/22 04:39:26;;;;;;;;;;;7.00;99.90;;;;;;7331790;19;109493;-78
2022/11/22 04:44:39;;;;;;;;;;;7.00;99.90;;;;;;7333944;19;108523;-77
2022/11/22 04:44:41;;;;;;;;;;;7.00;99.90;;;;;;7333139;19;109176;-78
2022/11/22 04:47:57;;;;;;;;;;;7.00;99.90;;;;;;7335552;19;109844;-77
2022/11/22 04:49:59;;;;;;;;;;;7.00;99.90;;;;;;7331579;19;109600;-77
2022/11/22 04:55:12;;;;;;;;;;;7.00;99.90;;;;;;7328182;19;109556;-77
2022/11/22 04:57:39;;;;;;;;;;;7.00;99.90;;;;;;7332754;19;109555;-77
2022/11/22 05:00:06;;;;;;;;;;;6.90;99.90;;;;;;7329735;19;111316;-77
2022/11/22 05:02:33;;;;;;;;;;;6.90;99.90;;;;;;7325665;19;110187;-77
2022/11/22 05:05:00;;;;;;;;;;;6.90;99.90;;;;;;7332803;19;109388;-77
2022/11/22 05:07:27;;;;;;;;;;;6.90;99.90;;;;;;7335644;19;110321;-77
2022/11/22 05:09:54;;;;;;;;;;;6.90;99.90;;;;;;7339628;19;108910;-77
2022/11/22 05:12:21;;;;;;;;;;;6.90;99.90;;;;;;7330976;19;110108;-77
2022/11/22 05:14:47;;;;;;;;;;;6.90;99.90;;;;;;7332658;19;109882;-77
2022/11/22 05:17:14;;;;;;;;;;;6.80;99.90;;;;;;7333706;19;109180;-77
2022/11/22 05:19:41;;;;;;;;;;;6.80;99.90;;;;;;7332225;19;112990;-77
2022/11/22 05:22:14;;;;;;;;;;;6.80;99.90;;;;;;7332555;19;110886;-76
2022/11/22 05:24:41;;;;;;;;;;;6.80;99.90;;;;;;7335775;19;109897;-77
2022/11/22 05:27:08;;;;;;;;;;;6.80;99.90;;;;;;7333032;19;110046;-77
2022/11/22 05:29:35;;;;;;;;;;;6.80;99.90;;;;;;7331179;19;110441;-77
2022/11/22 05:32:03;;;;;;;;;;;6.70;99.90;;;;;;7338171;19;109806;-77
2022/11/22 05:34:29;;;;;;;;;;;6.80;99.90;;;;;;7330807;19;110323;-78
2022/11/22 05:36:56;;;;;;;;;;;6.80;99.90;;;;;;7334941;19;111390;-77
2022/11/22 05:39:23;;;;;;;;;;;6.80;99.90;;;;;;7332312;19;110502;-77
2022/11/22 05:41:56;;;;;;;;;;;6.80;99.90;;;;;;7335852;19;108853;-77
2022/11/22 05:44:23;;;;;;;;;;;6.80;99.90;;;;;;7331592;19;109082;-77
2022/11/22 05:46:50;;;;;;;;;;;6.80;99.90;;;;;;7331342;19;110533;-76
2022/11/22 05:49:17;;;;;;;;;;;6.80;99.90;;;;;;7331395;19;108991;-76
2022/11/22 05:51:44;;;;;;;;;;;6.70;99.90;;;;;;7334266;19;109657;-77
2022/11/22 05:54:11;;;;;;;;;;;6.70;99.90;;;;;;7336792;19;110249;-78
2022/11/22 05:56:38;;;;;;;;;;;6.70;99.90;;;;;;7333272;19;110305;-77
2022/11/22 05:59:06;;;;;;;;;;;6.70;99.90;;;;;;7334393;19;110200;-77
2022/11/22 06:01:33;;;;;;;;;;;6.70;99.90;;;;;;7329070;19;109260;-76
2022/11/22 06:04:01;;;;;;;;;;;6.70;99.90;;;;;;7332920;19;110249;-77
2022/11/22 06:06:28;;;;;;;;;;;6.70;99.90;;;;;;7330147;19;110378;-77
2022/11/22 06:08:55;;;;;;;;;;;6.60;99.90;;;;;;7330394;19;109167;-78
2022/11/22 06:11:24;;;;;;;;;;;6.60;99.90;;;;;;7331390;19;109614;-80
2022/11/22 06:13:53;;;;;;;;;;;6.60;99.90;;;;;;7332629;19;109205;-77
2022/11/22 06:16:20;;;;;;;;;;;6.70;99.90;;;;;;7335479;19;109265;-79
2022/11/22 06:18:47;;;;;;;;;;;6.60;99.90;;;;;;7332082;19;110399;-78
2022/11/22 06:21:16;;;;;;;;;;;6.60;99.90;;;;;;7330036;19;108957;-78
2022/11/22 06:23:43;;;;;;;;;;;6.70;99.90;;;;;;7334045;19;109391;-77
2022/11/22 06:26:12;;;;;;;;;;;6.70;99.90;;;;;;7332842;19;111424;-78
2022/11/22 06:28:39;;;;;;;;;;;6.70;99.90;;;;;;7332983;19;109375;-78
2022/11/22 06:31:16;;;;;;;;;;;6.70;99.90;;;;;;7330374;19;112825;-78
2022/11/22 06:33:44;;;;;;;;;;;6.70;99.90;;;;;;7332825;19;110637;-78
2022/11/22 06:36:12;;;;;;;;;;;6.70;99.90;;;;;;7332429;19;109577;-77
2022/11/22 06:38:40;;;;;;;;;;;6.70;99.90;;;;;;7336914;19;109873;-78
2022/11/22 06:41:08;;;;;;;;;;;6.70;99.90;;;;;;7329734;19;108876;-77
2022/11/22 06:43:36;;;;;;;;;;;6.80;99.90;;;;;;7330824;19;108282;-78
2022/11/22 06:46:05;;;;;;;;;;;6.80;99.90;;;;;;7325397;19;110413;-76
2022/11/22 06:48:33;;;;;;;;;;;6.90;99.90;;;;;;7330787;19;108817;-77
2022/11/22 06:51:11;;;;;;;;;;;6.90;99.90;;;;;;7332874;19;109371;-77
2022/11/22 06:53:38;;;;;;;;;;;6.90;99.90;;;;;;7330212;19;109909;-77
2022/11/22 06:56:22;;;;;;;;;;;7.00;99.90;;;;;;7331374;19;109432;-77
2022/11/22 06:58:50;;;;;;;;;;;7.00;99.90;;;;;;7335671;19;110092;-76
2022/11/22 07:01:19;;;;;;;;;;;7.00;99.90;;;;;;7336421;19;110616;-76
2022/11/22 07:03:47;;;;;;;;;;;7.00;99.90;;;;;;7339497;19;110255;-76
2022/11/22 07:06:14;;;;;;;;;;;7.00;99.90;;;;;;7337341;19;109371;-76
2022/11/22 07:08:42;;;;;;;;;;;7.00;99.90;;;;;;7339186;19;112614;-76
2022/11/22 07:11:16;;;;;;;;;;;7.00;99.90;;;;;;7338354;19;110157;-76
2022/11/22 07:13:44;;;;;;;;;;;7.10;99.90;;;;;;7337435;19;110603;-76
2022/11/22 07:16:12;;;;;;;;;;;7.10;99.90;;;;;;7336863;19;108877;-76
2022/11/22 07:18:39;;;;;;;;;;;7.10;99.90;;;;;;7336039;19;110315;-76
2022/11/22 07:21:10;;;;;;;;;;;7.10;99.90;;;;;;7342542;19;110690;-76
2022/11/22 07:23:43;;;;;;;;;;;7.20;99.90;;;;;;7337771;19;109973;-76
2022/11/22 07:26:10;;;;;;;;;;;7.10;99.90;;;;;;7336445;19;110301;-76
2022/11/22 07:28:37;;;;;;;;;;;7.20;99.90;;;;;;7338444;19;109148;-76
2022/11/22 07:31:06;;;;;;;;;;;7.20;99.90;;;;;;7338994;19;109683;-76
2022/11/22 07:33:33;;;;;;;;;;;7.30;99.90;;;;;;7334764;19;110329;-76
2022/11/22 07:36:19;;;;;;;;;;;7.30;99.90;;;;;;7338708;19;109005;-76
2022/11/22 07:38:47;;;;;;;;;;;7.30;99.90;;;;;;7337872;19;109279;-76
2022/11/22 07:41:15;;;;;;;;;;;7.40;99.90;;;;;;7336385;19;109887;-76
2022/11/22 07:43:42;;;;;;;;;;;7.40;99.90;;;;;;7342141;19;108433;-76
2022/11/22 07:46:15;;;;;;;;;;;7.40;99.90;;;;;;7336724;19;110197;-77
2022/11/22 07:48:42;;;;;;;;;;;7.40;99.90;;;;;;7337285;19;108881;-76
2022/11/22 07:51:08;;;;;;;;;;;7.40;99.90;;;;;;7338011;19;109756;-76
2022/11/22 07:53:35;;;;;;;;;;;7.40;99.90;;;;;;7335127;19;110232;-76
2022/11/22 07:56:03;;;;;;;;;;;7.40;99.90;;;;;;7335955;19;109114;-76
2022/11/22 07:58:31;;;;;;;;;;;7.40;99.90;;;;;;7334959;19;109258;-76
2022/11/22 08:01:03;;;;;;;;;;;7.40;99.90;;;;;;7336568;19;111327;-76
2022/11/22 08:03:32;;;;;;;;;;;7.50;99.90;;;;;;7335828;19;109544;-76
2022/11/22 08:06:00;;;;;;;;;;;7.50;99.90;;;;;;7338333;19;108723;-76
2022/11/22 08:08:27;;;;;;;;;;;7.50;99.90;;;;;;7337120;19;109628;-76
2022/11/22 08:10:55;;;;;;;;;;;7.60;99.90;;;;;;7336359;19;109164;-76
2022/11/22 08:13:23;;;;;;;;;;;7.60;99.90;;;;;;7335001;19;109713;-76
2022/11/22 08:15:51;;;;;;;;;;;7.60;99.90;;;;;;7336231;19;110336;-77
2022/11/22 08:18:21;;;;;;;;;;;7.70;99.90;;;;;;7336854;19;108254;-76
2022/11/22 08:20:48;;;;;;;;;;;7.70;99.90;;;;;;7341437;19;110629;-76
2022/11/22 08:23:15;;;;;;;;;;;7.70;99.90;;;;;;7340445;19;108477;-77
2022/11/22 08:25:42;;;;;;;;;;;7.70;99.90;;;;;;7338857;19;109223;-76
2022/11/22 08:28:09;;;;;;;;;;;7.70;99.90;;;;;;7339473;19;109745;-76
2022/11/22 08:30:36;;;;;;;;;;;7.80;99.90;;;;;;7336466;19;108510;-76
2022/11/22 08:33:03;;;;;;;;;;;7.80;99.90;;;;;;7337439;19;110469;-76
2022/11/22 08:35:32;;;;;;;;;;;7.80;99.90;;;;;;7334059;19;108584;-76
2022/11/22 08:37:59;;;;;;;;;;;7.80;99.90;;;;;;7336441;19;108814;-76
2022/11/22 08:40:26;;;;;;;;;;;7.80;99.90;;;;;;7333890;19;111842;-76
2022/11/22 08:42:54;;;;;;;;;;;7.80;99.90;;;;;;7337194;19;108932;-76
2022/11/22 08:45:21;;;;;;;;;;;7.80;99.90;;;;;;7333371;19;109990;-76
2022/11/22 08:47:48;;;;;;;;;;;7.80;99.90;;;;;;7336389;19;108852;-76
2022/11/22 08:50:16;;;;;;;;;;;7.80;99.90;;;;;;7342618;19;108231;-78
2022/11/22 08:52:43;;;;;;;;;;;7.90;99.90;;;;;;7338722;19;109450;-76
2022/11/22 08:55:09;;;;;;;;;;;7.90;99.90;;;;;;7337731;19;108538;-76
2022/11/22 08:57:36;;;;;;;;;;;7.90;99.90;;;;;;7337926;19;111153;-76
2022/11/22 09:00:05;;;;;;;;;;;7.90;99.90;;;;;;7335945;19;110367;-76
2022/11/22 09:02:31;;;;;;;;;;;7.90;99.90;;;;;;7334351;19;110514;-76
2022/11/22 09:04:58;;;;;;;;;;;7.90;99.90;;;;;;7335622;19;108536;-76
2022/11/22 09:07:26;;;;;;;;;;;8.00;99.90;;;;;;7333673;19;110628;-76
2022/11/22 09:10:13;;;;;;;;;;;8.00;99.90;;;;;;7338252;19;108970;-76
2022/11/22 09:12:44;;;;;;;;;;;8.00;99.90;;;;;;7334720;19;111044;-76
2022/11/22 09:15:11;;;;;;;;;;;8.00;99.90;;;;;;7333067;19;108610;-77
2022/11/22 09:17:39;;;;;;;;;;;8.10;99.90;;;;;;7335693;19;108750;-76
2022/11/22 09:20:06;;;;;;;;;;;8.10;99.90;;;;;;7335047;19;109638;-76
2022/11/22 09:22:33;;;;;;;;;;;8.10;99.90;;;;;;7334193;19;108482;-77
2022/11/22 09:25:00;;;;;;;;;;;8.00;99.90;;;;;;7333761;19;110993;-76
2022/11/22 09:27:27;;;;;;;;;;;8.10;99.90;;;;;;7332413;19;111309;-76
2022/11/22 09:29:53;;;;;;;;;;;8.10;99.90;;;;;;7335374;19;108295;-76
2022/11/22 09:32:20;;;;;;;;;;;8.10;99.90;;;;;;7338470;19;109464;-76
2022/11/22 09:34:47;;;;;;;;;;;8.00;99.90;;;;;;7336104;19;108624;-77
2022/11/22 09:37:17;;;;;;;;;;;8.10;99.90;;;;;;7333745;19;110254;-76
2022/11/22 09:39:45;;;;;;;;;;;8.10;99.90;;;;;;7336167;19;110794;-76
2022/11/22 09:42:14;;;;;;;;;;;8.10;99.90;;;;;;7333247;19;109094;-76
2022/11/22 09:44:41;;;;;;;;;;;8.20;99.90;;;;;;7333557;19;109201;-76
2022/11/22 09:47:14;;;;;;;;;;;8.30;99.90;;;;;;7332053;19;110295;-76
2022/11/22 09:49:46;;;;;;;;;;;8.30;99.90;;;;;;7336509;19;109951;-76
2022/11/22 09:52:22;;;;;;;;;;;8.20;99.90;;;;;;7334690;19;109185;-76
2022/11/22 09:55:01;;;;;;;;;;;8.20;99.90;;;;;;7339595;19;110169;-76
2022/11/22 09:57:32;;;;;;;;;;;8.20;99.90;;;;;;7334242;19;110060;-76
2022/11/22 10:00:01;;;;;;;;;;;8.30;99.90;;;;;;7331084;19;109961;-77
2022/11/22 10:02:31;;;;;;;;;;;8.30;99.90;;;;;;7329705;19;109248;-77
2022/11/22 10:05:24;;;;;;;;;;;8.40;99.90;;;;;;7331298;19;108930;-77
2022/11/22 10:07:56;;;;;;;;;;;8.40;99.90;;;;;;7331551;19;111238;-78
2022/11/22 10:10:26;;;;;;;;;;;8.30;99.90;;;;;;7328171;19;109390;-77
2022/11/22 10:13:00;;;;;;;;;;;8.40;99.90;;;;;;7333585;19;109319;-77
2022/11/22 10:15:35;;;;;;;;;;;8.40;99.90;;;;;;7330667;19;110860;-76
2022/11/22 10:18:05;;;;;;;;;;;8.40;99.90;;;;;;7338434;19;110929;-77
2022/11/22 10:20:34;;;;;;;;;;;8.50;99.90;;;;;;7329853;19;110309;-76
2022/11/22 10:23:02;;;;;;;;;;;8.40;99.90;;;;;;7329094;19;109632;-76
2022/11/22 10:25:38;;;;;;;;;;;8.50;99.90;;;;;;7331639;19;109980;-76
2022/11/22 10:28:18;;;;;;;;;;;8.50;99.90;;;;;;7331790;19;110190;-77
2022/11/22 10:30:51;;;;;;;;;;;8.50;99.90;;;;;;7329854;19;109595;-76
2022/11/22 10:33:24;;;;;;;;;;;8.40;99.90;;;;;;7331305;19;108896;-76
2022/11/22 10:35:54;;;;;;;;;;;8.30;99.90;;;;;;7336263;19;110138;-75
2022/11/22 10:38:20;;;;;;;;;;;8.40;99.90;;;;;;7339431;19;108706;-76
2022/11/22 10:40:57;;;;;;;;;;;8.40;99.90;;;;;;7344800;19;109305;-75
2022/11/22 10:43:36;;;;;;;;;;;8.40;99.90;;;;;;7339066;19;108795;-76
2022/11/22 10:46:09;;;;;;;;;;;8.50;99.90;;;;;;7339264;19;109588;-76
2022/11/22 10:48:36;;;;;;;;;;;8.50;99.90;;;;;;7337289;19;110733;-77
2022/11/22 10:51:12;;;;;;;;;;;8.50;99.90;;;;;;7339402;19;109474;-76
2022/11/22 10:53:51;;;;;;;;;;;8.50;99.90;;;;;;7338959;19;108480;-75
2022/11/22 10:56:17;;;;;;;;;;;8.60;99.90;;;;;;7334747;19;110191;-76
2022/11/22 10:58:50;;;;;;;;;;;8.60;99.90;;;;;;7338651;19;109022;-76
2022/11/22 11:01:23;;;;;;;;;;;8.70;99.90;;;;;;7342073;19;109482;-78
2022/11/22 11:03:52;;;;;;;;;;;8.70;99.90;;;;;;7340173;19;109093;-78
2022/11/22 11:06:34;;;;;;;;;;;8.70;99.90;;;;;;7338055;19;109807;-78
2022/11/22 11:09:36;;;;;;;;;;;8.70;99.90;;;;;;7337479;19;112264;-79
2022/11/22 11:12:35;;;;;;;;;;;8.80;99.90;;;;;;7335060;19;108767;-76
2022/11/22 11:15:21;;;;;;;;;;;8.80;99.90;;;;;;7337589;19;109292;-76
2022/11/22 11:17:50;;;;;;;;;;;8.80;99.90;;;;;;7339807;19;114589;-77
2022/11/22 11:20:22;;;;;;;;;;;8.80;99.90;;;;;;7337048;19;109884;-76
2022/11/22 11:22:49;;;;;;;;;;;8.80;99.90;;;;;;7338058;19;108479;-77
2022/11/22 11:25:41;;;;;;;;;;;8.80;99.90;;;;;;7339615;19;109339;-76
2022/11/22 11:28:25;;;;;;;;;;;8.90;99.90;;;;;;7337826;19;110416;-76
2022/11/22 11:30:55;;;;;;;;;;;8.90;99.90;;;;;;7336291;19;110588;-76
2022/11/22 11:33:28;;;;;;;;;;;9.00;99.90;;;;;;7336834;19;108751;-76
2022/11/22 11:35:59;;;;;;;;;;;9.00;99.90;;;;;;7337273;19;109016;-76
2022/11/22 11:38:28;;;;;;;;;;;9.00;99.90;;;;;;7338270;19;110336;-76
2022/11/22 11:40:55;;;;;;;;;;;9.10;99.90;;;;;;7337611;19;108903;-76
2022/11/22 11:43:23;;;;;;;;;;;9.10;99.90;;;;;;7335605;19;109878;-76
2022/11/22 11:45:50;;;;;;;;;;;9.10;99.90;;;;;;7336220;19;110164;-76
2022/11/22 11:48:42;;;;;;;;;;;9.10;99.90;;;;;;7338508;19;109134;-76
2022/11/22 11:51:28;;;;;;;;;;;9.20;99.90;;;;;;7336024;19;111076;-76
2022/11/22 11:53:59;;;;;;;;;;;9.30;99.90;;;;;;7337525;19;109273;-76
2022/11/22 11:56:38;;;;;;;;;;;9.30;99.90;;;;;;7336771;19;109329;-76
2022/11/22 11:59:08;;;;;;;;;;;9.30;99.90;;;;;;7332338;19;109919;-76
2022/11/22 12:01:36;;;;;;;;;;;9.30;99.90;;;;;;7334109;19;109983;-76
2022/11/22 12:04:14;;;;;;;;;;;9.40;99.90;;;;;;7335533;19;109872;-75
2022/11/22 12:06:51;;;;;;;;;;;9.40;99.90;;;;;;7335392;19;109978;-76
2022/11/22 12:09:47;;;;;;;;;;;9.40;99.90;;;;;;7336658;19;110836;-76
2022/11/22 12:12:14;;;;;;;;;;;9.50;99.90;;;;;;7339930;19;108927;-76
2022/11/22 12:14:42;;;;;;;;;;;9.50;99.90;;;;;;7337916;19;108326;-76
2022/11/22 12:17:30;;;;;;;;;;;9.60;99.90;;;;;;7335588;19;110713;-76
2022/11/22 12:20:04;;;;;;;;;;;9.60;99.90;;;;;;7335191;19;110226;-77
2022/11/22 12:23:04;;;;;;;;;;;9.50;99.90;;;;;;7336017;19;115601;-77
2022/11/22 12:25:35;;;;;;;;;;;9.60;99.90;;;;;;7332030;19;109727;-78
2022/11/22 12:28:08;;;;;;;;;;;9.60;99.90;;;;;;7331207;19;109458;-77
2022/11/22 12:30:36;;;;;;;;;;;9.70;99.90;;;;;;7327607;19;109582;-77
2022/11/22 12:33:04;;;;;;;;;;;9.70;99.90;;;;;;7330724;19;110546;-76
2022/11/22 12:35:35;;;;;;;;;;;9.70;99.90;;;;;;7333748;19;109950;-77
2022/11/22 12:38:07;;;;;;;;;;;9.70;99.90;;;;;;7332881;19;109216;-76
2022/11/22 12:40:46;;;;;;;;;;;9.70;99.90;;;;;;7330380;19;112904;-76
2022/11/22 12:43:16;;;;;;;;;;;9.70;99.90;;;;;;7330917;19;109023;-76
2022/11/22 12:45:46;;;;;;;;;;;9.70;99.90;;;;;;7331215;19;109328;-76
2022/11/22 12:48:20;;;;;;;;;;;9.70;99.90;;;;;;7336091;19;110332;-76
2022/11/22 12:50:49;;;;;;;;;;;9.70;99.90;;;;;;7331347;19;109658;-76
2022/11/22 12:53:20;;;;;;;;;;;9.70;99.90;;;;;;7329646;19;109163;-71
2022/11/22 12:55:59;;;;;;;;;;;9.70;99.90;;;;;;7326605;19;111064;-71
2022/11/22 12:58:26;;;;;;;;;;;9.70;99.90;;;;;;7334370;19;108253;-71
2022/11/22 13:01:06;;;;;;;;;;;9.70;99.90;;;;;;7331644;19;110233;-71
2022/11/22 13:03:41;;;;;;;;;;;9.60;99.90;;;;;;7334584;19;109008;-71
2022/11/22 13:06:09;;;;;;;;;;;9.60;99.90;;;;;;7335366;19;109904;-71
2022/11/22 13:08:39;;;;;;;;;;;9.60;99.90;;;;;;7334771;19;110131;-71
2022/11/22 13:11:15;;;;;;;;;;;9.60;99.90;;;;;;7333333;19;108907;-71
2022/11/22 13:13:47;;;;;;;;;;;9.60;99.90;;;;;;7336494;19;108890;-71
2022/11/22 13:16:14;;;;;;;;;;;9.60;99.90;;;;;;7333198;19;110122;-71
2022/11/22 13:18:45;;;;;;;;;;;9.60;99.90;;;;;;7340194;19;108709;-71
2022/11/22 13:21:21;;;;;;;;;;;9.60;99.90;;;;;;7332675;19;110024;-71
2022/11/22 13:23:54;;;;;;;;;;;9.50;99.90;;;;;;7336511;19;109269;-72
2022/11/22 13:26:29;;;;;;;;;;;9.50;99.90;;;;;;7335122;19;113868;-71
2022/11/22 13:28:56;;;;;;;;;;;9.50;99.90;;;;;;7334372;19;112915;-71
2022/11/22 13:31:23;;;;;;;;;;;9.50;99.90;;;;;;7333933;19;109382;-71
2022/11/22 13:33:55;;;;;;;;;;;9.50;99.90;;;;;;7335538;19;108628;-71
2022/11/22 13:36:21;;;;;;;;;;;9.50;99.90;;;;;;7333822;19;113610;-71
2022/11/22 13:38:51;;;;;;;;;;;9.50;99.90;;;;;;7336507;19;108936;-71
2022/11/22 13:41:20;;;;;;;;;;;9.50;99.90;;;;;;7339437;19;109355;-71
2022/11/22 13:43:49;;;;;;;;;;;9.50;99.90;;;;;;7335163;19;110111;-71
2022/11/22 13:46:35;;;;;;;;;;;9.50;99.90;;;;;;7334847;19;109382;-71
2022/11/22 13:49:20;;;;;;;;;;;9.50;99.90;;;;;;7333465;19;110296;-71
2022/11/22 13:51:54;;;;;;;;;;;9.50;99.90;;;;;;7334968;19;110402;-71
2022/11/22 13:54:36;;;;;;;;;;;9.40;99.90;;;;;;7334644;19;109316;-71
2022/11/22 13:57:24;;;;;;;;;;;9.40;99.90;;;;;;7334562;19;109714;-72
2022/11/22 14:00:09;;;;;;;;;;;9.40;99.90;;;;;;7332878;19;108890;-71
2022/11/22 14:02:46;;;;;;;;;;;9.40;99.90;;;;;;7332689;19;109207;-71
2022/11/22 14:05:25;;;;;;;;;;;9.50;99.90;;;;;;7339728;19;110156;-71
2022/11/22 14:07:54;;;;;;;;;;;9.40;99.90;;;;;;7332863;19;109264;-71
2022/11/22 14:10:30;;;;;;;;;;;9.40;99.90;;;;;;7334476;19;109247;-71
2022/11/22 14:12:57;;;;;;;;;;;9.40;99.90;;;;;;7340984;19;108947;-71
2022/11/22 14:15:36;;;;;;;;;;;9.40;99.90;;;;;;7340550;19;110058;-71
2022/11/22 14:18:26;;;;;;;;;;;9.50;99.90;;;;;;7340795;19;110474;-71
2022/11/22 14:20:53;;;;;;;;;;;9.50;99.90;;;;;;7340155;19;108680;-71
2022/11/22 14:23:20;;;;;;;;;;;9.50;99.90;;;;;;7339845;19;109997;-71
2022/11/22 14:26:10;;;;;;;;;;;9.50;99.90;;;;;;7340484;19;109779;-72
2022/11/22 14:28:53;;;;;;;;;;;9.50;99.90;;;;;;7340950;19;108489;-70
2022/11/22 14:31:32;;;;;;;;;;;9.50;99.90;;;;;;7333385;19;111335;-71
2022/11/22 14:34:18;;;;;;;;;;;9.50;99.90;;;;;;7336317;19;108623;-71
2022/11/22 14:37:04;;;;;;;;;;;9.50;99.90;;;;;;7335572;19;109305;-71
2022/11/22 14:39:43;;;;;;;;;;;9.50;99.90;;;;;;7335075;19;115377;-71
2022/11/22 14:42:29;;;;;;;;;;;9.50;99.90;;;;;;7334952;19;109659;-71
2022/11/22 14:44:56;;;;;;;;;;;9.50;99.90;;;;;;7335566;19;112058;-71
2022/11/22 14:47:23;;;;;;;;;;;9.50;99.90;;;;;;7334208;19;109328;-71
2022/11/22 14:49:52;;;;;;;;;;;9.50;99.90;;;;;;7336241;19;108326;-71